Time;durP1;ratioP1;P1;durP2;ratioP2;P2;SDS_P1;SDS_P2;PMS_P1;PMS_P2;Temp;Humidity;BMP_temperature;BMP_pressure;BME280_temperature;BME280_humidity;BME280_pressure;Samples;Min_cycle;Max_cycle;Signal;HPM_P1;HPM_P2
2022/05/27 00:00:15;;;;;;;11.85;3.58;;;;;;;;;;5013565;28;94898;-73
2022/05/27 00:02:41;;;;;;;9.95;2.90;;;;;;;;;;5014751;28;96249;-72
2022/05/27 00:05:08;;;;;;;6.57;3.25;;;;;;;;;;5014692;28;94291;-74
2022/05/27 00:07:34;;;;;;;6.93;2.38;;;;;;;;;;5034468;28;92891;-73
2022/05/27 00:10:00;;;;;;;8.40;2.47;;;;;;;;;;5035731;28;93924;-72
2022/05/27 00:12:27;;;;;;;7.47;2.42;;;;;;;;;;5037665;28;94159;-72
2022/05/27 00:14:53;;;;;;;8.82;1.80;;;;;;;;;;5035291;28;94736;-72
2022/05/27 00:17:20;;;;;;;13.38;2.80;;;;;;;;;;5035879;28;92949;-72
2022/05/27 00:19:46;;;;;;;3.72;2.25;;;;;;;;;;5034865;28;92456;-72
2022/05/27 00:22:13;;;;;;;6.95;2.60;;;;;;;;;;5032718;28;94366;-73
2022/05/27 00:24:39;;;;;;;7.68;2.45;;;;;;;;;;5013434;28;96610;-73
2022/05/27 00:27:08;;;;;;;9.88;2.67;;;;;;;;;;5014421;28;92943;-73
2022/05/27 00:29:34;;;;;;;5.75;2.50;;;;;;;;;;5014876;28;93047;-73
2022/05/27 00:32:21;;;;;;;7.57;2.20;;;;;;;;;;5018158;28;94146;-73
2022/05/27 00:34:47;;;;;;;7.47;2.83;;;;;;;;;;4998574;28;93153;-73
2022/05/27 00:37:14;;;;;;;9.48;2.85;;;;;;;;;;4994232;28;93439;-74
2022/05/27 00:39:40;;;;;;;7.53;2.40;;;;;;;;;;4999824;28;92491;-73
2022/05/27 00:42:07;;;;;;;8.15;2.53;;;;;;;;;;5014430;28;93529;-73
2022/05/27 00:44:33;;;;;;;5.90;2.28;;;;;;;;;;5014688;28;94428;-73
2022/05/27 00:47:12;;;;;;;4.20;2.50;;;;;;;;;;5015032;28;93583;-73
2022/05/27 00:49:43;;;;;;;7.40;2.40;;;;;;;;;;5013052;28;94818;-74
2022/05/27 00:52:11;;;;;;;5.75;2.80;;;;;;;;;;5014232;28;93974;-73
2022/05/27 00:54:37;;;;;;;7.60;2.63;;;;;;;;;;5016961;28;92632;-73
2022/05/27 00:57:05;;;;;;;8.05;3.20;;;;;;;;;;5020817;28;93267;-73
2022/05/27 00:59:43;;;;;;;5.68;2.70;;;;;;;;;;5034057;28;92501;-73
2022/05/27 01:02:09;;;;;;;6.32;3.00;;;;;;;;;;5029251;28;93989;-73
2022/05/27 01:04:36;;;;;;;7.05;2.85;;;;;;;;;;5014280;28;94202;-73
2022/05/27 01:07:04;;;;;;;5.88;2.75;;;;;;;;;;5014871;28;91671;-73
2022/05/27 01:09:31;;;;;;;7.95;2.75;;;;;;;;;;5013505;28;95659;-73
2022/05/27 01:12:20;;;;;;;6.22;2.92;;;;;;;;;;5014361;28;94298;-73
2022/05/27 01:15:05;;;;;;;7.57;2.63;;;;;;;;;;5024917;28;95381;-73
2022/05/27 01:17:40;;;;;;;8.65;2.55;;;;;;;;;;5016234;28;96083;-74
2022/05/27 01:20:19;;;;;;;11.10;3.40;;;;;;;;;;5014014;28;92463;-73
2022/05/27 01:22:58;;;;;;;6.53;2.50;;;;;;;;;;5013137;28;94098;-73
2022/05/27 01:25:50;;;;;;;10.30;3.17;;;;;;;;;;5013874;28;94410;-73
2022/05/27 01:28:28;;;;;;;6.53;3.00;;;;;;;;;;5014319;28;93178;-74
2022/05/27 01:31:04;;;;;;;9.93;2.70;;;;;;;;;;5014041;28;93789;-74
2022/05/27 01:33:49;;;;;;;6.93;2.85;;;;;;;;;;5014428;28;93515;-74
2022/05/27 01:36:27;;;;;;;6.47;3.28;;;;;;;;;;5012738;28;92685;-74
2022/05/27 01:38:54;;;;;;;11.23;3.55;;;;;;;;;;5013765;28;93968;-73
2022/05/27 01:41:30;;;;;;;5.13;2.55;;;;;;;;;;5013966;28;96574;-73
2022/05/27 01:43:59;;;;;;;9.90;3.17;;;;;;;;;;5012888;28;95480;-73
2022/05/27 01:46:28;;;;;;;11.38;3.50;;;;;;;;;;5013343;28;94305;-73
2022/05/27 01:48:55;;;;;;;10.05;3.20;;;;;;;;;;5014494;28;92427;-73
2022/05/27 01:51:23;;;;;;;11.25;3.60;;;;;;;;;;5013292;28;94098;-73
2022/05/27 01:54:00;;;;;;;20.77;3.72;;;;;;;;;;5013825;28;94472;-74
2022/05/27 01:56:30;;;;;;;12.50;3.95;;;;;;;;;;5013218;28;92524;-73
2022/05/27 01:58:59;;;;;;;14.32;4.50;;;;;;;;;;5013265;28;93304;-74
2022/05/27 02:01:28;;;;;;;12.57;3.63;;;;;;;;;;5013351;28;94577;-73
2022/05/27 02:03:59;;;;;;;12.48;3.88;;;;;;;;;;5017003;28;92443;-73
2022/05/27 02:06:28;;;;;;;16.00;4.07;;;;;;;;;;5029205;28;96497;-73
2022/05/27 02:08:59;;;;;;;12.02;4.00;;;;;;;;;;5033990;28;92922;-73
2022/05/27 02:11:25;;;;;;;11.77;4.13;;;;;;;;;;5032776;28;94100;-74
2022/05/27 02:14:07;;;;;;;9.48;3.45;;;;;;;;;;5033635;28;94639;-73
2022/05/27 02:16:42;;;;;;;14.55;4.25;;;;;;;;;;5025461;28;92901;-73
2022/05/27 02:19:15;;;;;;;11.70;4.03;;;;;;;;;;5012977;28;93900;-73
2022/05/27 02:21:44;;;;;;;16.52;4.47;;;;;;;;;;5013603;28;93754;-73
2022/05/27 02:24:13;;;;;;;16.20;4.07;;;;;;;;;;5014133;28;91766;-73
2022/05/27 02:26:41;;;;;;;16.13;4.35;;;;;;;;;;5015259;28;93920;-73
2022/05/27 02:29:12;;;;;;;15.02;4.20;;;;;;;;;;5013421;28;92923;-74
2022/05/27 02:31:41;;;;;;;11.50;4.53;;;;;;;;;;5011330;28;94826;-73
2022/05/27 02:37:07;;;;;;;22.98;4.07;;;;;;;;;;5000590;28;92491;-72
2022/05/27 02:39:34;;;;;;;9.60;3.55;;;;;;;;;;5023161;28;94508;-72
2022/05/27 02:42:17;;;;;;;17.42;4.13;;;;;;;;;;5018634;28;94016;-72
2022/05/27 02:45:17;;;;;;;10.43;3.67;;;;;;;;;;5012894;28;92442;-72
2022/05/27 02:47:53;;;;;;;9.65;3.45;;;;;;;;;;5002613;28;93150;-72
2022/05/27 02:50:40;;;;;;;10.90;4.30;;;;;;;;;;5013888;28;92014;-72
2022/05/27 02:53:13;;;;;;;8.05;3.55;;;;;;;;;;5013202;28;93790;-73
2022/05/27 02:55:39;;;;;;;;;;;;;;;;;;5012498;28;94477;-73
2022/05/27 02:58:06;;;;;;;9.32;3.30;;;;;;;;;;5011700;28;118227;-73
2022/05/27 03:00:34;;;;;;;11.43;3.78;;;;;;;;;;5011622;28;95506;-73
2022/05/27 03:03:00;;;;;;;9.77;3.47;;;;;;;;;;5012559;28;93394;-73
2022/05/27 03:05:29;;;;;;;8.75;3.40;;;;;;;;;;5012779;28;93034;-73
2022/05/27 03:08:14;;;;;;;10.27;3.95;;;;;;;;;;5011876;28;95163;-73
2022/05/27 03:10:41;;;;;;;5.75;3.20;;;;;;;;;;5015994;28;94512;-72
2022/05/27 03:13:26;;;;;;;10.48;4.20;;;;;;;;;;5019850;28;93241;-72
2022/05/27 03:16:08;;;;;;;13.20;4.15;;;;;;;;;;5028327;28;93388;-71
2022/05/27 03:18:43;;;;;;;8.88;3.65;;;;;;;;;;5012428;28;92794;-71
2022/05/27 03:21:27;;;;;;;10.63;4.05;;;;;;;;;;5012678;28;93877;-72
2022/05/27 03:24:11;;;;;;;10.25;3.45;;;;;;;;;;5010524;28;95757;-71
2022/05/27 03:26:57;;;;;;;13.23;4.50;;;;;;;;;;5012379;28;92483;-72
2022/05/27 03:29:29;;;;;;;12.15;4.15;;;;;;;;;;5011850;28;93861;-73
2022/05/27 03:31:55;;;;;;;;;;;;;;;;;;5012666;28;93577;-72
2022/05/27 03:34:32;;;;;;;7.28;3.25;;;;;;;;;;5015508;28;118086;-72
2022/05/27 03:37:13;;;;;;;16.85;4.07;;;;;;;;;;5011727;28;94725;-73
2022/05/27 03:39:40;;;;;;;13.95;3.65;;;;;;;;;;5014919;28;92514;-72
2022/05/27 03:42:08;;;;;;;13.13;4.07;;;;;;;;;;4996703;28;93936;-73
2022/05/27 03:44:35;;;;;;;15.32;3.30;;;;;;;;;;4994583;28;94280;-73
2022/05/27 03:47:01;;;;;;;9.70;3.22;;;;;;;;;;5003583;28;92648;-72
2022/05/27 03:49:28;;;;;;;10.77;3.65;;;;;;;;;;5014005;28;94823;-72
2022/05/27 03:52:01;;;;;;;8.48;3.20;;;;;;;;;;5014664;28;94224;-73
2022/05/27 03:54:27;;;;;;;6.90;3.85;;;;;;;;;;5015712;28;92439;-72
2022/05/27 03:56:54;;;;;;;11.05;3.53;;;;;;;;;;5018094;28;93174;-72
2022/05/27 03:59:20;;;;;;;11.00;3.30;;;;;;;;;;5015983;28;92503;-73
2022/05/27 04:01:49;;;;;;;10.32;3.90;;;;;;;;;;5015508;28;94125;-72
2022/05/27 04:04:17;;;;;;;12.48;3.80;;;;;;;;;;5015232;28;93399;-73
2022/05/27 04:06:43;;;;;;;11.68;3.40;;;;;;;;;;5015694;28;91747;-73
2022/05/27 04:09:10;;;;;;;9.15;3.33;;;;;;;;;;5016345;28;93211;-73
2022/05/27 04:11:36;;;;;;;12.27;3.53;;;;;;;;;;5013968;28;93605;-73
2022/05/27 04:14:03;;;;;;;11.95;3.22;;;;;;;;;;5014101;28;95037;-73
2022/05/27 04:16:29;;;;;;;7.82;3.20;;;;;;;;;;5014821;28;95759;-73
2022/05/27 04:18:55;;;;;;;9.13;3.20;;;;;;;;;;5017763;28;93316;-73
2022/05/27 04:21:23;;;;;;;8.30;3.05;;;;;;;;;;5015708;28;94272;-73
2022/05/27 04:23:49;;;;;;;13.40;3.03;;;;;;;;;;5015275;28;94248;-73
2022/05/27 04:26:16;;;;;;;8.13;2.72;;;;;;;;;;5014499;28;92462;-73
2022/05/27 04:28:42;;;;;;;7.45;3.10;;;;;;;;;;5014959;28;92923;-73
2022/05/27 04:31:08;;;;;;;10.52;3.53;;;;;;;;;;5015358;28;93440;-73
2022/05/27 04:33:35;;;;;;;11.32;2.95;;;;;;;;;;5014780;28;93102;-73
2022/05/27 04:36:02;;;;;;;10.30;2.92;;;;;;;;;;5003883;28;94575;-73
2022/05/27 04:38:28;;;;;;;13.27;3.03;;;;;;;;;;5003391;28;96572;-73
2022/05/27 04:40:55;;;;;;;14.82;3.85;;;;;;;;;;5017170;28;92527;-71
2022/05/27 04:43:21;;;;;;;16.13;3.00;;;;;;;;;;5019430;28;93420;-71
2022/05/27 04:45:48;;;;;;;11.52;3.35;;;;;;;;;;5020648;28;93747;-76
2022/05/27 04:48:16;;;;;;;10.27;2.97;;;;;;;;;;5018033;27;93120;-72
2022/05/27 04:50:42;;;;;;;12.13;3.50;;;;;;;;;;5005766;28;94267;-72
2022/05/27 04:53:10;;;;;;;8.45;3.00;;;;;;;;;;5006240;28;92851;-72
2022/05/27 04:55:37;;;;;;;10.30;3.35;;;;;;;;;;5024083;28;93138;-73
2022/05/27 04:58:04;;;;;;;13.07;3.35;;;;;;;;;;5012872;28;94046;-74
2022/05/27 05:00:32;;;;;;;11.45;3.10;;;;;;;;;;5018406;28;92905;-72
2022/05/27 05:02:58;;;;;;;21.17;4.20;;;;;;;;;;5033337;27;96568;-72
2022/05/27 05:05:26;;;;;;;10.55;3.28;;;;;;;;;;5019911;27;92908;-73
2022/05/27 05:07:57;;;;;;;12.70;3.53;;;;;;;;;;5001698;28;96316;-71
2022/05/27 05:10:24;;;;;;;19.25;3.83;;;;;;;;;;5007223;28;94203;-73
2022/05/27 05:12:51;;;;;;;18.38;3.33;;;;;;;;;;4999448;28;94017;-73
2022/05/27 05:15:19;;;;;;;9.55;3.58;;;;;;;;;;4998713;28;94048;-72
2022/05/27 05:17:46;;;;;;;14.70;3.67;;;;;;;;;;4996641;28;94273;-73
2022/05/27 05:20:14;;;;;;;12.23;3.85;;;;;;;;;;5000510;28;93573;-73
2022/05/27 05:22:40;;;;;;;7.53;3.20;;;;;;;;;;5002075;28;93243;-72
2022/05/27 05:25:07;;;;;;;9.73;3.38;;;;;;;;;;5000369;28;92537;-73
2022/05/27 05:27:34;;;;;;;11.43;3.58;;;;;;;;;;4991574;28;94855;-72
2022/05/27 05:30:02;;;;;;;8.25;3.15;;;;;;;;;;4992485;28;94151;-69
2022/05/27 05:32:28;;;;;;;12.88;3.13;;;;;;;;;;4998170;28;93042;-72
2022/05/27 05:34:54;;;;;;;13.40;3.47;;;;;;;;;;4993943;28;93951;-73
2022/05/27 05:37:22;;;;;;;11.13;3.40;;;;;;;;;;5001447;28;94185;-73
2022/05/27 05:39:48;;;;;;;9.43;2.88;;;;;;;;;;5011901;28;92430;-72
2022/05/27 05:42:14;;;;;;;9.10;3.00;;;;;;;;;;5011817;28;93925;-72
2022/05/27 05:44:41;;;;;;;10.38;2.72;;;;;;;;;;5004446;28;93424;-73
2022/05/27 05:47:07;;;;;;;12.43;2.95;;;;;;;;;;4998577;28;93242;-72
2022/05/27 05:49:34;;;;;;;15.00;2.85;;;;;;;;;;4992617;28;93924;-73
2022/05/27 05:52:00;;;;;;;9.07;2.65;;;;;;;;;;4997829;28;95384;-73
2022/05/27 05:54:27;;;;;;;16.63;2.95;;;;;;;;;;4996196;28;96877;-72
2022/05/27 05:56:54;;;;;;;9.88;2.58;;;;;;;;;;4992801;28;94270;-73
2022/05/27 05:59:23;;;;;;;11.43;2.28;;;;;;;;;;4994410;28;92572;-72
2022/05/27 06:01:49;;;;;;;9.65;2.30;;;;;;;;;;4997471;28;93989;-72
2022/05/27 06:04:16;;;;;;;9.68;2.72;;;;;;;;;;5000231;28;94137;-72
2022/05/27 06:06:45;;;;;;;13.32;2.80;;;;;;;;;;5007592;28;92559;-72
2022/05/27 06:09:11;;;;;;;16.65;2.92;;;;;;;;;;4995945;28;93490;-70
2022/05/27 06:11:38;;;;;;;16.23;3.03;;;;;;;;;;4991057;28;92635;-72
2022/05/27 06:14:04;;;;;;;8.93;3.00;;;;;;;;;;5002074;28;94673;-72
2022/05/27 06:16:31;;;;;;;7.43;2.75;;;;;;;;;;4996849;28;97035;-72
2022/05/27 06:18:58;;;;;;;12.38;3.17;;;;;;;;;;5005416;28;92540;-71
2022/05/27 06:21:25;;;;;;;11.95;3.45;;;;;;;;;;5000723;28;94723;-72
2022/05/27 06:23:52;;;;;;;14.35;3.00;;;;;;;;;;5002555;28;94485;-72
2022/05/27 06:26:18;;;;;;;13.85;3.80;;;;;;;;;;4999249;28;94249;-72
2022/05/27 06:34:24;;;;;;;14.90;3.20;;;;;;;;;;5002260;28;93104;-70
2022/05/27 06:36:55;;;;;;;10.88;2.92;;;;;;;;;;5000546;28;94333;-72
2022/05/27 06:39:23;;;;;;;12.05;3.10;;;;;;;;;;5003176;28;92722;-72
2022/05/27 06:41:50;;;;;;;8.70;2.72;;;;;;;;;;5005460;28;95688;-72
2022/05/27 06:44:17;;;;;;;11.27;2.88;;;;;;;;;;5033150;28;94121;-71
2022/05/27 06:46:44;;;;;;;14.15;2.92;;;;;;;;;;5016920;28;92475;-72
2022/05/27 06:49:10;;;;;;;16.02;3.40;;;;;;;;;;5016092;28;92994;-72
2022/05/27 06:51:38;;;;;;;11.63;3.20;;;;;;;;;;4993481;28;93117;-72
2022/05/27 06:54:05;;;;;;;13.00;3.05;;;;;;;;;;4995602;28;92417;-72
2022/05/27 06:56:35;;;;;;;12.85;3.05;;;;;;;;;;4992942;28;94141;-72
2022/05/27 06:59:02;;;;;;;12.80;2.78;;;;;;;;;;4993634;28;91699;-72
2022/05/27 07:01:28;;;;;;;10.80;3.38;;;;;;;;;;4992172;28;92431;-72
2022/05/27 07:03:55;;;;;;;22.85;3.75;;;;;;;;;;4993005;28;94031;-72
2022/05/27 07:06:23;;;;;;;8.10;2.65;;;;;;;;;;4991440;28;94887;-72
2022/05/27 07:08:49;;;;;;;12.38;3.13;;;;;;;;;;4992297;28;95728;-72
2022/05/27 07:11:15;;;;;;;12.45;3.42;;;;;;;;;;5007361;28;94590;-72
2022/05/27 07:13:42;;;;;;;11.90;3.50;;;;;;;;;;5013516;28;93247;-72
2022/05/27 07:16:08;;;;;;;14.57;3.38;;;;;;;;;;5007673;28;93666;-72
2022/05/27 07:18:35;;;;;;;10.77;3.20;;;;;;;;;;4996492;28;92874;-72
2022/05/27 07:21:02;;;;;;;20.58;3.33;;;;;;;;;;4998130;28;93125;-72
2022/05/27 07:23:29;;;;;;;16.95;3.00;;;;;;;;;;5016602;28;92681;-72
2022/05/27 07:25:55;;;;;;;13.48;3.60;;;;;;;;;;5015801;28;93198;-72
2022/05/27 07:28:46;;;;;;;14.43;4.07;;;;;;;;;;5006095;28;94730;-71
2022/05/27 07:31:17;;;;;;;15.45;3.88;;;;;;;;;;5014638;28;95495;-72
2022/05/27 07:33:45;;;;;;;13.82;3.05;;;;;;;;;;5019286;28;92439;-72
2022/05/27 07:36:12;;;;;;;13.00;3.53;;;;;;;;;;5015353;28;94036;-72
2022/05/27 07:38:42;;;;;;;14.88;3.65;;;;;;;;;;5013080;27;92865;-73
2022/05/27 07:41:11;;;;;;;20.30;3.45;;;;;;;;;;5015173;28;93239;-72
2022/05/27 07:43:52;;;;;;;18.42;3.83;;;;;;;;;;5013938;28;93572;-73
2022/05/27 07:46:25;;;;;;;16.50;4.47;;;;;;;;;;4998990;28;92560;-74
2022/05/27 07:49:07;;;;;;;17.03;4.20;;;;;;;;;;5000040;28;93782;-74
2022/05/27 07:51:58;;;;;;;13.35;3.30;;;;;;;;;;5021182;28;92548;-72
2022/05/27 07:54:34;;;;;;;14.52;3.25;;;;;;;;;;5026305;27;92627;-72
2022/05/27 07:57:25;;;;;;;21.90;3.90;;;;;;;;;;5012963;28;94878;-72
2022/05/27 07:59:53;;;;;;;11.83;3.47;;;;;;;;;;5010967;28;92580;-73
2022/05/27 08:02:29;;;;;;;15.65;4.07;;;;;;;;;;4995422;28;92933;-72
2022/05/27 08:04:57;;;;;;;14.80;3.72;;;;;;;;;;4993227;28;94137;-72
2022/05/27 08:07:26;;;;;;;10.93;3.13;;;;;;;;;;4994359;28;92753;-73
2022/05/27 08:09:53;;;;;;;13.68;3.28;;;;;;;;;;5000826;28;93860;-73
2022/05/27 08:12:19;;;;;;;12.65;3.17;;;;;;;;;;5009211;28;93745;-73
2022/05/27 08:14:48;;;;;;;16.92;4.07;;;;;;;;;;5003327;28;91844;-72
2022/05/27 08:17:14;;;;;;;18.55;4.35;;;;;;;;;;5015063;28;93166;-73
2022/05/27 08:19:41;;;;;;;13.15;3.30;;;;;;;;;;5017760;28;92416;-73
2022/05/27 08:22:11;;;;;;;8.38;3.28;;;;;;;;;;5012839;28;94857;-71
2022/05/27 08:24:42;;;;;;;8.27;3.22;;;;;;;;;;5011565;28;93704;-71
2022/05/27 08:27:12;;;;;;;12.23;3.65;;;;;;;;;;5014244;28;92633;-72
2022/05/27 08:29:39;;;;;;;13.40;3.45;;;;;;;;;;5011734;28;93048;-72
2022/05/27 08:32:06;;;;;;;20.35;4.78;;;;;;;;;;4994586;28;94439;-71
2022/05/27 08:40:15;;;;;;;13.07;3.25;;;;;;;;;;4993403;28;93506;-72
2022/05/27 08:42:46;;;;;;;13.15;3.10;;;;;;;;;;4998139;28;92500;-71
2022/05/27 08:45:32;;;;;;;15.48;4.25;;;;;;;;;;4993966;28;93454;-72
2022/05/27 08:48:01;;;;;;;11.32;3.63;;;;;;;;;;4997336;28;95946;-73
2022/05/27 08:50:33;;;;;;;10.70;3.42;;;;;;;;;;4994823;28;96430;-72
2022/05/27 08:53:09;;;;;;;13.68;3.33;;;;;;;;;;4993889;28;93627;-73
2022/05/27 09:01:29;;;;;;;6.82;3.00;;;;;;;;;;5013931;28;92834;-72
2022/05/27 09:04:19;;;;;;;18.48;4.55;;;;;;;;;;5014970;28;93206;-72
2022/05/27 09:06:54;;;;;;;12.35;3.65;;;;;;;;;;4990779;28;93374;-72
2022/05/27 09:09:21;;;;;;;10.23;3.42;;;;;;;;;;4997983;28;92458;-72
2022/05/27 09:11:48;;;;;;;11.88;3.65;;;;;;;;;;4995274;28;93075;-72
2022/05/27 09:14:21;;;;;;;13.20;3.47;;;;;;;;;;4997813;28;96625;-72
2022/05/27 09:16:56;;;;;;;7.53;3.28;;;;;;;;;;5006083;28;92451;-72
2022/05/27 09:19:46;;;;;;;11.88;3.20;;;;;;;;;;4995042;28;93523;-72
2022/05/27 09:22:12;;;;;;;;;;;;;;;;;;4994382;28;93558;-72
2022/05/27 09:24:45;;;;;;;11.18;3.30;;;;;;;;;;4994589;28;118237;-72
2022/05/27 09:27:16;;;;;;;13.20;3.90;;;;;;;;;;4997312;28;94069;-72
2022/05/27 09:29:58;;;;;;;10.25;3.38;;;;;;;;;;4994370;28;92918;-72
2022/05/27 09:32:30;;;;;;;13.68;3.58;;;;;;;;;;4994836;28;93675;-72
2022/05/27 09:35:02;;;;;;;17.58;3.53;;;;;;;;;;4997113;28;94815;-77
2022/05/27 09:37:51;;;;;;;11.48;4.53;;;;;;;;;;4993477;28;92516;-75
2022/05/27 09:40:20;;;;;;;12.30;3.58;;;;;;;;;;4992559;28;94867;-71
2022/05/27 09:42:54;;;;;;;11.15;3.58;;;;;;;;;;4993476;28;94865;-72
2022/05/27 09:45:21;;;;;;;8.23;3.17;;;;;;;;;;4995061;28;92616;-72
2022/05/27 09:47:47;;;;;;;9.80;3.28;;;;;;;;;;5014498;28;93090;-72
2022/05/27 09:50:14;;;;;;;11.73;3.55;;;;;;;;;;5007659;28;94198;-72
2022/05/27 09:52:42;;;;;;;24.30;5.20;;;;;;;;;;4994974;28;93969;-73
2022/05/27 09:55:23;;;;;;;9.48;3.28;;;;;;;;;;4999805;28;94068;-72
2022/05/27 09:57:56;;;;;;;8.57;3.23;;;;;;;;;;4994254;28;91976;-73
2022/05/27 10:00:36;;;;;;;16.15;3.75;;;;;;;;;;5009661;28;93270;-72
2022/05/27 10:03:19;;;;;;;13.77;4.40;;;;;;;;;;5010985;28;94229;-73
2022/05/27 10:05:53;;;;;;;12.20;3.85;;;;;;;;;;5007780;28;95095;-73
2022/05/27 10:08:33;;;;;;;12.82;4.50;;;;;;;;;;4993946;28;96145;-72
2022/05/27 10:11:22;;;;;;;15.05;5.03;;;;;;;;;;4993885;28;93191;-72
2022/05/27 10:14:16;;;;;;;10.70;3.58;;;;;;;;;;5029803;28;92964;-72
2022/05/27 10:16:57;;;;;;;17.73;4.25;;;;;;;;;;4999028;28;94098;-73
2022/05/27 10:19:26;;;;;;;15.57;4.45;;;;;;;;;;4993683;28;92903;-73
2022/05/27 10:21:54;;;;;;;8.50;3.55;;;;;;;;;;4993813;28;93828;-73
2022/05/27 10:24:34;;;;;;;15.57;4.22;;;;;;;;;;4993445;28;93567;-72
2022/05/27 10:27:04;;;;;;;17.42;4.10;;;;;;;;;;4993877;28;92439;-72
2022/05/27 10:29:50;;;;;;;12.30;4.63;;;;;;;;;;4993564;28;94019;-72
2022/05/27 10:32:26;;;;;;;11.55;4.50;;;;;;;;;;4990968;28;96508;-72
2022/05/27 10:34:53;;;;;;;14.23;4.07;;;;;;;;;;4993674;28;92496;-71
2022/05/27 10:37:28;;;;;;;7.75;2.80;;;;;;;;;;4994313;28;95064;-71
2022/05/27 10:39:57;;;;;;;13.13;3.53;;;;;;;;;;4994189;28;93579;-73
2022/05/27 10:42:52;;;;;;;10.32;3.35;;;;;;;;;;4995321;28;93817;-72
2022/05/27 10:45:23;;;;;;;12.13;3.67;;;;;;;;;;5011262;28;93504;-72
2022/05/27 10:48:09;;;;;;;18.03;3.60;;;;;;;;;;4999609;28;92647;-71
2022/05/27 10:50:54;;;;;;;14.77;3.95;;;;;;;;;;5001299;28;93958;-71
2022/05/27 10:53:30;;;;;;;11.95;3.47;;;;;;;;;;5002199;28;95065;-71
2022/05/27 10:55:57;;;;;;;10.23;3.67;;;;;;;;;;4997068;28;92776;-71
2022/05/27 11:04:08;;;;;;;15.50;3.53;;;;;;;;;;5011517;28;94430;-70
2022/05/27 11:06:54;;;;;;;15.98;4.80;;;;;;;;;;5006558;28;94153;-70
2022/05/27 11:09:26;;;;;;;10.88;2.85;;;;;;;;;;5001141;28;93969;-70
2022/05/27 11:11:56;;;;;;;13.70;4.18;;;;;;;;;;5000164;28;93983;-71
2022/05/27 11:17:25;;;;;;;10.70;3.55;;;;;;;;;;5006034;28;92877;-70
2022/05/27 11:20:10;;;;;;;11.48;3.60;;;;;;;;;;5005168;28;92556;-71
2022/05/27 11:22:37;;;;;;;10.95;3.42;;;;;;;;;;5002649;28;94191;-71
2022/05/27 11:25:22;;;;;;;11.18;3.60;;;;;;;;;;4999534;28;95010;-71
2022/05/27 11:27:52;;;;;;;9.23;3.30;;;;;;;;;;5020220;28;94088;-72
2022/05/27 11:30:38;;;;;;;12.10;3.85;;;;;;;;;;5034220;27;92541;-70
2022/05/27 11:33:07;;;;;;;10.85;3.08;;;;;;;;;;5033550;27;94140;-70
2022/05/27 11:35:35;;;;;;;10.75;3.58;;;;;;;;;;5034009;27;94115;-71
2022/05/27 11:38:23;;;;;;;12.82;3.40;;;;;;;;;;5035390;27;92725;-71
2022/05/27 11:41:10;;;;;;;11.15;3.15;;;;;;;;;;5035657;28;93995;-71
2022/05/27 11:43:45;;;;;;;11.93;3.55;;;;;;;;;;5036099;28;93339;-71
2022/05/27 11:46:33;;;;;;;13.85;3.58;;;;;;;;;;5039255;28;92471;-71
2022/05/27 11:49:18;;;;;;;19.65;4.60;;;;;;;;;;5034796;28;93506;-71
2022/05/27 11:52:03;;;;;;;10.65;3.05;;;;;;;;;;5029649;28;94862;-70
2022/05/27 11:54:37;;;;;;;9.40;3.05;;;;;;;;;;5014030;28;96355;-70
2022/05/27 11:57:24;;;;;;;11.23;3.47;;;;;;;;;;5015038;28;93756;-71
2022/05/27 12:00:03;;;;;;;11.70;3.17;;;;;;;;;;5015273;28;92509;-71
2022/05/27 12:02:51;;;;;;;12.50;3.58;;;;;;;;;;5014132;28;92540;-71
2022/05/27 12:05:22;;;;;;;11.60;3.13;;;;;;;;;;5015462;28;93573;-71
2022/05/27 12:07:57;;;;;;;15.35;3.63;;;;;;;;;;5015774;28;92434;-71
2022/05/27 12:10:26;;;;;;;14.95;3.42;;;;;;;;;;5017943;28;93258;-71
2022/05/27 12:13:17;;;;;;;10.93;2.85;;;;;;;;;;5015560;28;92497;-71
2022/05/27 12:15:46;;;;;;;13.13;2.58;;;;;;;;;;5015069;28;92451;-71
2022/05/27 12:18:34;;;;;;;12.55;3.55;;;;;;;;;;5000467;28;96483;-71
2022/05/27 12:21:02;;;;;;;13.50;3.03;;;;;;;;;;4995832;28;92485;-71
2022/05/27 12:23:29;;;;;;;16.25;3.55;;;;;;;;;;4994110;28;93421;-71
2022/05/27 12:25:58;;;;;;;10.95;2.45;;;;;;;;;;4995065;28;94417;-71
2022/05/27 12:28:33;;;;;;;14.60;3.22;;;;;;;;;;4995089;28;92583;-71
2022/05/27 12:31:00;;;;;;;11.35;2.70;;;;;;;;;;4994896;28;94048;-71
2022/05/27 12:33:28;;;;;;;11.13;3.22;;;;;;;;;;4997807;28;93099;-71
2022/05/27 12:36:05;;;;;;;15.18;3.50;;;;;;;;;;4994798;28;93211;-72
2022/05/27 12:38:36;;;;;;;7.68;2.35;;;;;;;;;;5001666;28;93603;-71
2022/05/27 12:41:04;;;;;;;11.07;3.08;;;;;;;;;;5004069;28;92646;-71
2022/05/27 12:43:32;;;;;;;11.20;2.80;;;;;;;;;;5001806;28;95456;-71
2022/05/27 12:46:01;;;;;;;10.00;2.65;;;;;;;;;;4994490;28;94537;-71
2022/05/27 12:48:30;;;;;;;18.95;3.47;;;;;;;;;;5003736;28;92534;-70
2022/05/27 12:51:01;;;;;;;11.60;3.45;;;;;;;;;;5000018;28;94125;-70
2022/05/27 12:53:47;;;;;;;11.57;3.67;;;;;;;;;;4996150;28;94306;-70
2022/05/27 13:02:24;;;;;;;11.32;2.75;;;;;;;;;;5001516;28;92539;-71
2022/05/27 13:05:01;;;;;;;15.88;3.38;;;;;;;;;;5008501;28;92477;-70
2022/05/27 13:07:32;;;;;;;7.13;3.10;;;;;;;;;;5002218;28;94181;-70
2022/05/27 13:10:20;;;;;;;9.55;2.83;;;;;;;;;;4997090;28;94845;-70
2022/05/27 13:12:53;;;;;;;11.38;3.08;;;;;;;;;;4993606;28;94718;-69
2022/05/27 13:15:33;;;;;;;14.45;3.20;;;;;;;;;;4995267;28;92746;-71
2022/05/27 13:18:20;;;;;;;14.57;3.30;;;;;;;;;;4994673;28;92510;-70
2022/05/27 13:21:05;;;;;;;7.15;2.80;;;;;;;;;;5001465;28;93935;-71
2022/05/27 13:23:49;;;;;;;13.05;3.75;;;;;;;;;;5004546;28;92492;-72
2022/05/27 13:26:30;;;;;;;15.45;3.33;;;;;;;;;;5008679;28;93380;-72
2022/05/27 13:28:59;;;;;;;14.90;3.90;;;;;;;;;;5002905;28;93035;-71
2022/05/27 13:31:39;;;;;;;20.00;3.25;;;;;;;;;;5003440;28;92459;-71
2022/05/27 13:34:08;;;;;;;11.85;3.10;;;;;;;;;;5008975;28;93224;-71
2022/05/27 13:36:56;;;;;;;8.57;3.00;;;;;;;;;;5008009;28;97754;-71
2022/05/27 13:39:25;;;;;;;9.32;3.20;;;;;;;;;;5002735;28;92471;-72
2022/05/27 13:41:53;;;;;;;11.10;3.67;;;;;;;;;;4998951;28;93945;-71
2022/05/27 13:44:30;;;;;;;8.32;2.60;;;;;;;;;;4997134;28;92749;-72
2022/05/27 13:47:07;;;;;;;6.10;2.60;;;;;;;;;;4993922;28;94111;-72
2022/05/27 13:49:41;;;;;;;12.55;2.88;;;;;;;;;;4996553;27;93485;-70
2022/05/27 13:52:11;;;;;;;15.23;3.20;;;;;;;;;;4992758;28;92628;-72
2022/05/27 13:54:39;;;;;;;16.10;3.55;;;;;;;;;;5001114;28;92234;-71
2022/05/27 13:57:07;;;;;;;8.02;2.70;;;;;;;;;;4995741;28;95162;-71
2022/05/27 13:59:42;;;;;;;13.02;2.97;;;;;;;;;;5014259;28;92452;-71
2022/05/27 14:02:18;;;;;;;7.95;2.80;;;;;;;;;;5006137;28;95185;-71
2022/05/27 14:04:47;;;;;;;12.68;2.63;;;;;;;;;;5028015;28;94474;-72
2022/05/27 14:07:25;;;;;;;10.50;2.88;;;;;;;;;;5028199;27;93392;-71
2022/05/27 14:09:57;;;;;;;12.18;3.60;;;;;;;;;;4991547;28;94592;-72
2022/05/27 14:12:30;;;;;;;11.35;3.05;;;;;;;;;;4992928;28;92588;-71
2022/05/27 14:15:04;;;;;;;10.98;3.45;;;;;;;;;;5003378;28;93923;-71
2022/05/27 14:17:43;;;;;;;9.60;2.70;;;;;;;;;;4995578;28;93404;-71
2022/05/27 14:20:16;;;;;;;16.60;3.60;;;;;;;;;;5018156;28;93962;-70
2022/05/27 14:22:44;;;;;;;18.42;5.00;;;;;;;;;;5005786;28;92497;-71
2022/05/27 14:25:23;;;;;;;4.13;2.08;;;;;;;;;;5002603;28;93402;-72
2022/05/27 14:28:12;;;;;;;16.35;3.35;;;;;;;;;;5014949;28;95130;-71
2022/05/27 14:30:40;;;;;;;6.82;2.22;;;;;;;;;;5011700;28;93165;-74
2022/05/27 14:33:22;;;;;;;6.57;1.90;;;;;;;;;;5012369;28;94868;-72
2022/05/27 14:35:49;;;;;;;;;;;;;;;;;;4993286;28;92944;-72
2022/05/27 14:38:18;;;;;;;5.38;2.47;;;;;;;;;;4997037;28;93391;-72
2022/05/27 14:40:47;;;;;;;6.20;2.70;;;;;;;;;;4993654;28;92563;-72
2022/05/27 14:43:31;;;;;;;10.35;2.28;;;;;;;;;;4993748;28;93960;-72
2022/05/27 14:46:11;;;;;;;13.30;2.85;;;;;;;;;;4993186;28;93467;-72
2022/05/27 14:48:38;;;;;;;6.72;2.20;;;;;;;;;;4992974;28;92483;-72
2022/05/27 14:51:23;;;;;;;8.05;2.92;;;;;;;;;;4996132;28;93119;-72
2022/05/27 14:53:50;;;;;;;12.82;3.00;;;;;;;;;;4990550;28;94966;-72
2022/05/27 14:56:21;;;;;;;7.85;2.92;;;;;;;;;;4993562;28;96927;-72
2022/05/27 14:59:13;;;;;;;10.82;2.80;;;;;;;;;;4992917;28;93541;-72
2022/05/27 15:01:41;;;;;;;5.25;1.80;;;;;;;;;;4993499;28;93158;-72
2022/05/27 15:04:11;;;;;;;15.52;3.28;;;;;;;;;;4993325;28;93950;-72
2022/05/27 15:06:39;;;;;;;12.70;2.97;;;;;;;;;;4992130;28;94128;-71
2022/05/27 15:09:24;;;;;;;11.00;3.22;;;;;;;;;;4993375;28;92906;-72
2022/05/27 15:11:52;;;;;;;11.15;3.38;;;;;;;;;;4993605;28;92943;-72
2022/05/27 15:14:25;;;;;;;10.35;3.67;;;;;;;;;;4996229;28;94146;-72
2022/05/27 15:16:57;;;;;;;10.50;2.58;;;;;;;;;;4992920;28;94408;-72
2022/05/27 15:19:24;;;;;;;12.70;2.83;;;;;;;;;;4990139;28;96340;-72
2022/05/27 15:22:02;;;;;;;9.30;2.58;;;;;;;;;;4993158;28;92434;-72
2022/05/27 15:24:46;;;;;;;8.15;2.60;;;;;;;;;;4992878;28;93914;-72
2022/05/27 15:33:08;;;;;;;8.02;2.20;;;;;;;;;;4992819;28;93403;-71
2022/05/27 15:35:42;;;;;;;9.53;2.43;;;;;;;;;;4995157;28;93413;-71
2022/05/27 15:38:09;;;;;;;10.35;3.25;;;;;;;;;;5014080;28;92303;-71
2022/05/27 15:40:39;;;;;;;5.57;1.95;;;;;;;;;;5014848;28;94282;-71
2022/05/27 15:43:27;;;;;;;11.57;2.53;;;;;;;;;;5016149;28;92470;-71
2022/05/27 15:45:54;;;;;;;9.90;2.47;;;;;;;;;;5014644;28;94906;-72